Time;durP1;ratioP1;P1;durP2;ratioP2;P2;SDS_P1;SDS_P2;PMS_P1;PMS_P2;Temp;Humidity;BMP_temperature;BMP_pressure;BME280_temperature;BME280_humidity;BME280_pressure;Samples;Min_cycle;Max_cycle;Signal;HPM_P1;HPM_P2
2024/03/26 00:02:12;;;;;;;3.80;1.00;;;;;;;7.91;76.54;99618.53;5031790;28;20033;-68
2024/03/26 00:04:37;;;;;;;4.72;1.00;;;;;;;7.90;76.82;99614.31;5031187;28;20556;-68
2024/03/26 00:07:03;;;;;;;1.73;1.02;;;;;;;7.92;76.76;99620.06;5034295;28;20500;-67
2024/03/26 00:09:28;;;;;;;5.63;1.05;;;;;;;7.88;76.53;99624.59;5031073;28;20048;-69
2024/03/26 00:11:55;;;;;;;1.10;0.90;;;;;;;7.82;76.79;99615.38;5032706;28;20037;-68
2024/03/26 00:14:21;;;;;;;2.60;1.00;;;;;;;7.85;77.02;99609.25;5047646;28;20509;-68
2024/03/26 00:16:46;;;;;;;7.60;1.35;;;;;;;7.78;76.80;99612.59;5025809;28;20033;-67
2024/03/26 00:19:12;;;;;;;2.35;1.42;;;;;;;7.78;77.18;99601.13;5026953;28;20029;-67
2024/03/26 00:21:37;;;;;;;5.40;1.75;;;;;;;7.77;77.03;99597.69;5034252;28;20173;-65
2024/03/26 00:24:03;;;;;;;2.50;1.30;;;;;;;7.75;77.55;99591.13;5030348;28;20067;-68
2024/03/26 00:26:28;;;;;;;1.73;1.05;;;;;;;7.77;77.65;99595.00;5029973;28;20030;-69
2024/03/26 00:28:54;;;;;;;0.68;0.68;;;;;;;7.75;76.82;99591.91;5015235;28;20033;-66
2024/03/26 00:31:20;;;;;;;1.08;0.98;;;;;;;7.71;76.96;99591.09;5066200;28;20026;-68
2024/03/26 00:33:45;;;;;;;1.17;1.08;;;;;;;7.65;77.26;99586.38;5032294;28;20380;-68
2024/03/26 00:36:11;;;;;;;4.15;1.30;;;;;;;7.62;77.79;99584.44;5034497;28;20120;-68
2024/03/26 00:38:37;;;;;;;1.67;1.13;;;;;;;7.62;77.50;99584.44;5023672;28;20490;-68
2024/03/26 00:41:03;;;;;;;4.28;1.15;;;;;;;7.64;76.73;99584.84;5035604;28;20048;-68
2024/03/26 00:43:29;;;;;;;1.25;1.00;;;;;;;7.54;76.85;99591.59;5052251;28;20052;-70
2024/03/26 00:45:54;;;;;;;3.10;1.02;;;;;;;7.49;76.50;99588.47;5014628;28;20087;-67
2024/03/26 00:48:20;;;;;;;2.75;1.20;;;;;;;7.48;77.36;99597.63;5034011;28;20029;-68
2024/03/26 00:50:45;;;;;;;2.05;1.30;;;;;;;7.48;77.04;99597.63;5032320;28;20032;-69
2024/03/26 00:53:11;;;;;;;4.25;1.10;;;;;;;7.48;76.62;99584.22;5035440;28;20441;-68
2024/03/26 00:55:37;;;;;;;2.22;0.82;;;;;;;7.45;76.98;99603.69;5034318;28;20056;-68
2024/03/26 00:58:03;;;;;;;2.95;1.27;;;;;;;7.40;77.42;99579.88;5040989;28;20068;-68
2024/03/26 01:00:28;;;;;;;1.20;0.82;;;;;;;7.38;76.95;99571.44;5035650;28;20191;-67
2024/03/26 01:02:54;;;;;;;1.10;1.10;;;;;;;7.41;76.88;99586.81;5032182;28;20048;-66
2024/03/26 01:05:19;;;;;;;1.48;0.93;;;;;;;7.41;77.82;99578.78;5028831;28;20104;-64
2024/03/26 01:07:45;;;;;;;0.93;0.82;;;;;;;7.43;77.04;99573.81;5059378;28;20103;-66
2024/03/26 01:10:11;;;;;;;2.00;1.15;;;;;;;7.40;77.34;99585.25;5030633;28;20029;-69
2024/03/26 01:12:36;;;;;;;0.77;0.77;;;;;;;7.39;78.14;99578.34;5050653;28;20037;-69
2024/03/26 01:15:02;;;;;;;1.27;0.82;;;;;;;7.41;77.39;99574.19;5049385;28;20085;-66
2024/03/26 01:17:27;;;;;;;3.08;1.30;;;;;;;7.40;77.48;99579.88;5046069;28;20044;-68
2024/03/26 01:19:52;;;;;;;1.27;1.00;;;;;;;7.38;77.90;99564.19;5049182;28;20030;-66
2024/03/26 01:22:18;;;;;;;3.10;1.30;;;;;;;7.37;78.02;99572.59;5032648;28;20056;-65
2024/03/26 01:24:43;;;;;;;1.75;1.17;;;;;;;7.39;77.99;99573.00;5024362;28;20029;-67
2024/03/26 01:27:09;;;;;;;3.70;1.10;;;;;;;7.39;77.60;99573.00;5037859;28;20044;-66
2024/03/26 01:29:35;;;;;;;2.67;1.20;;;;;;;7.35;78.17;99562.25;5040868;28;20029;-65
2024/03/26 01:32:01;;;;;;;1.80;1.17;;;;;;;7.32;78.46;99555.69;5035454;28;20450;-67
2024/03/26 01:34:28;;;;;;;1.65;0.85;;;;;;;7.36;77.93;99568.34;5034041;28;20040;-68
2024/03/26 01:36:54;;;;;;;1.02;0.93;;;;;;;7.32;78.01;99556.84;5047091;28;20033;-65
2024/03/26 01:39:20;;;;;;;0.90;0.90;;;;;;;7.26;78.60;99565.16;5031497;28;20026;-66
2024/03/26 01:41:46;;;;;;;1.98;1.27;;;;;;;7.29;78.67;99561.00;5044305;28;20025;-66
2024/03/26 01:44:11;;;;;;;1.08;1.00;;;;;;;7.23;77.97;99563.22;5035650;28;20047;-66
2024/03/26 01:46:37;;;;;;;1.02;0.93;;;;;;;7.20;77.72;99566.59;5033963;28;20036;-66
2024/03/26 01:49:05;;;;;;;1.58;1.15;;;;;;;7.19;77.68;99557.03;5032072;28;20037;-66
2024/03/26 01:51:36;;;;;;;0.73;0.73;;;;;;;7.13;78.52;99560.34;5063279;28;20048;-66
2024/03/26 01:54:03;;;;;;;1.45;1.20;;;;;;;7.12;78.11;99553.47;5018987;28;20041;-66
2024/03/26 01:56:29;;;;;;;1.52;0.90;;;;;;;7.09;78.50;99552.28;5026871;28;20053;-65
2024/03/26 01:58:55;;;;;;;1.50;1.38;;;;;;;7.14;77.25;99554.63;5034460;28;20056;-65
2024/03/26 02:01:22;;;;;;;9.43;1.40;;;;;;;7.10;77.62;99551.13;5031889;28;20114;-65
2024/03/26 02:03:48;;;;;;;2.20;1.00;;;;;;;7.04;77.82;99555.25;5031649;28;20021;-67
2024/03/26 02:06:14;;;;;;;1.00;0.90;;;;;;;7.00;77.71;99546.41;5045887;28;20120;-64
2024/03/26 02:08:41;;;;;;;1.85;0.85;;;;;;;7.02;78.49;99546.81;5037981;28;20460;-66
2024/03/26 02:11:07;;;;;;;1.70;1.08;;;;;;;7.05;77.66;99553.34;5029878;28;20544;-67
2024/03/26 02:13:32;;;;;;;1.40;0.80;;;;;;;7.02;78.60;99549.50;5016574;28;20402;-67
2024/03/26 02:16:01;;;;;;;3.63;1.13;;;;;;;7.02;77.40;99548.72;5050270;28;20037;-66
2024/03/26 02:18:26;;;;;;;3.65;1.30;;;;;;;6.93;77.78;99543.59;5047127;28;20087;-66
2024/03/26 02:20:52;;;;;;;4.60;0.90;;;;;;;6.85;77.85;99552.63;5030001;28;20049;-66
2024/03/26 02:23:21;;;;;;;5.00;1.10;;;;;;;6.86;78.02;99542.69;5042113;28;20037;-66
2024/03/26 02:25:46;;;;;;;3.70;1.15;;;;;;;6.83;78.71;99540.75;5028269;28;20028;-69
2024/03/26 02:28:12;;;;;;;0.80;0.80;;;;;;;6.83;78.83;99538.06;5065409;28;20541;-66
2024/03/26 02:30:37;;;;;;;1.10;0.95;;;;;;;6.82;77.94;99539.97;5043126;28;20033;-67
2024/03/26 02:33:03;;;;;;;1.35;0.80;;;;;;;6.75;78.36;99539.06;5008429;28;20021;-66
2024/03/26 02:35:29;;;;;;;2.22;0.75;;;;;;;6.71;79.10;99539.03;5045649;28;20038;-67
2024/03/26 02:37:54;;;;;;;1.92;1.30;;;;;;;6.67;78.29;99526.72;5053850;28;20120;-66
2024/03/26 02:40:20;;;;;;;3.03;1.23;;;;;;;6.70;78.88;99529.44;5029878;28;20017;-67
2024/03/26 02:42:47;;;;;;;2.17;1.02;;;;;;;6.66;78.36;99531.28;5040092;28;20036;-66
2024/03/26 02:45:12;;;;;;;4.13;1.00;;;;;;;6.59;78.60;99522.34;5030955;28;20037;-66
2024/03/26 02:47:38;;;;;;;0.85;0.85;;;;;;;6.58;78.78;99524.25;5033845;28;20490;-66
2024/03/26 02:50:04;;;;;;;2.38;1.13;;;;;;;6.60;78.62;99518.56;5030649;28;20445;-66
2024/03/26 02:52:30;;;;;;;1.23;0.88;;;;;;;6.57;78.34;99517.38;5052283;28;20044;-66
2024/03/26 02:54:55;;;;;;;0.90;0.70;;;;;;;6.51;78.43;99513.44;5042202;28;20029;-66
2024/03/26 02:57:21;;;;;;;0.70;0.70;;;;;;;6.51;78.63;99518.00;5036617;28;20033;-67
2024/03/26 02:59:46;;;;;;;2.10;1.90;;;;;;;6.49;78.38;99513.03;5027672;28;20778;-66
2024/03/26 03:02:12;;;;;;;1.80;1.50;;;;;;;6.45;78.36;99516.75;5028673;28;20032;-65
2024/03/26 03:04:37;;;;;;;0.93;0.82;;;;;;;6.41;78.64;99518.63;5027069;28;20030;-65
2024/03/26 03:07:02;;;;;;;1.27;0.93;;;;;;;6.42;78.56;99525.50;5034547;28;20113;-66
2024/03/26 03:09:28;;;;;;;0.80;0.80;;;;;;;6.42;78.08;99525.50;5032069;28;20498;-67
2024/03/26 03:11:53;;;;;;;1.88;1.15;;;;;;;6.43;78.02;99519.78;5029627;28;20029;-66
2024/03/26 03:14:19;;;;;;;1.58;1.17;;;;;;;6.39;78.26;99518.94;5028398;28;20558;-66
2024/03/26 03:16:44;;;;;;;1.65;1.02;;;;;;;6.36;78.22;99523.13;5012697;28;20107;-65
2024/03/26 03:19:10;;;;;;;1.10;1.00;;;;;;;6.35;78.20;99510.09;5030094;28;20048;-67
2024/03/26 03:21:36;;;;;;;1.38;1.13;;;;;;;6.31;78.83;99517.28;5027127;28;20120;-67
2024/03/26 03:24:01;;;;;;;1.05;0.77;;;;;;;6.30;78.72;99513.06;5027895;28;20391;-66
2024/03/26 03:26:27;;;;;;;1.60;1.50;;;;;;;6.29;78.26;99508.84;5046963;28;20028;-67
2024/03/26 03:28:53;;;;;;;1.42;0.90;;;;;;;6.25;78.76;99514.13;5030258;28;20120;-65
2024/03/26 03:31:18;;;;;;;5.60;1.05;;;;;;;6.22;78.13;99506.03;5043566;28;20037;-65
2024/03/26 03:33:44;;;;;;;1.48;0.88;;;;;;;6.24;78.69;99501.09;5018221;28;20060;-66
2024/03/26 03:36:09;;;;;;;1.02;0.95;;;;;;;6.20;78.62;99502.94;5023914;28;20030;-67
2024/03/26 03:38:35;;;;;;;2.10;1.15;;;;;;;6.20;78.58;99502.94;5032353;28;20040;-66
2024/03/26 03:41:01;;;;;;;1.08;0.98;;;;;;;6.17;78.77;99499.09;5008084;28;20033;-65
2024/03/26 03:43:26;;;;;;;2.72;0.80;;;;;;;6.16;79.19;99504.78;5065427;28;20396;-65
2024/03/26 03:45:52;;;;;;;1.38;1.15;;;;;;;6.16;78.94;99500.22;5033795;28;20044;-66
2024/03/26 03:48:17;;;;;;;3.60;1.33;;;;;;;6.16;78.69;99502.88;5032935;28;20636;-67
2024/03/26 03:50:43;;;;;;;2.58;1.15;;;;;;;6.14;79.05;99497.13;5041361;28;20022;-66
2024/03/26 03:53:08;;;;;;;1.83;1.13;;;;;;;6.11;78.92;99502.41;5034325;28;20662;-66
2024/03/26 03:55:34;;;;;;;0.90;0.90;;;;;;;6.12;79.70;99490.56;5029160;28;20029;-68
2024/03/26 03:57:59;;;;;;;1.27;0.88;;;;;;;6.13;79.80;99497.47;5028473;28;20044;-66
2024/03/26 04:00:25;;;;;;;1.55;1.08;;;;;;;6.14;79.92;99488.31;5032506;28;20048;-66
2024/03/26 04:02:50;;;;;;;4.82;1.45;;;;;;;6.17;79.54;99482.28;5031605;28;20037;-70
2024/03/26 04:05:16;;;;;;;3.53;1.30;;;;;;;6.13;79.23;99479.56;5032581;28;20498;-66
2024/03/26 04:07:41;;;;;;;1.48;0.95;;;;;;;6.15;79.10;99489.88;5032162;28;20033;-66
2024/03/26 04:10:07;;;;;;;5.00;0.82;;;;;;;6.14;79.20;99480.31;5032470;28;20052;-67
2024/03/26 04:12:32;;;;;;;3.70;1.10;;;;;;;6.16;79.76;99480.72;5046321;28;20394;-67
2024/03/26 04:14:58;;;;;;;1.77;1.13;;;;;;;6.14;79.27;99474.94;5035259;28;20116;-66
2024/03/26 04:17:23;;;;;;;1.60;1.38;;;;;;;6.11;79.39;99467.66;5045874;28;20034;-67
2024/03/26 04:19:49;;;;;;;1.92;1.17;;;;;;;6.10;79.26;99455.41;5034199;28;20025;-66
2024/03/26 04:22:14;;;;;;;1.92;1.50;;;;;;;6.12;79.60;99469.97;5029266;28;20070;-66
2024/03/26 04:24:40;;;;;;;1.23;1.02;;;;;;;6.10;79.32;99469.56;5031041;28;20025;-67
2024/03/26 04:27:06;;;;;;;1.15;1.00;;;;;;;6.10;79.47;99452.72;5026609;28;20048;-67
2024/03/26 04:29:31;;;;;;;1.83;1.10;;;;;;;6.07;79.17;99459.59;5030940;28;20033;-67
2024/03/26 04:31:57;;;;;;;0.90;0.90;;;;;;;6.07;78.82;99458.81;5035670;28;20534;-66
2024/03/26 04:34:22;;;;;;;5.60;1.23;;;;;;;6.02;78.67;99453.75;5017107;28;20178;-66
2024/03/26 04:36:53;;;;;;;1.60;0.95;;;;;;;6.03;78.87;99452.63;5019376;28;20033;-66
2024/03/26 04:39:19;;;;;;;1.48;1.20;;;;;;;6.04;79.45;99456.84;5031305;28;20030;-65
2024/03/26 04:41:44;;;;;;;1.75;1.20;;;;;;;6.03;79.08;99449.94;5029522;28;20609;-66
2024/03/26 04:44:09;;;;;;;3.05;1.40;;;;;;;6.06;78.76;99438.53;5050586;28;20483;-67
2024/03/26 04:46:35;;;;;;;4.00;1.60;;;;;;;6.08;78.61;99452.31;5066424;28;20080;-65
2024/03/26 04:49:00;;;;;;;2.50;1.45;;;;;;;6.03;79.16;99440.03;5038772;28;20040;-67
2024/03/26 04:51:26;;;;;;;1.45;1.15;;;;;;;6.10;78.56;99447.41;5029376;28;20040;-66
2024/03/26 04:53:53;;;;;;;1.27;1.17;;;;;;;6.06;79.18;99443.88;5032049;28;21240;-68
2024/03/26 04:56:20;;;;;;;1.20;1.10;;;;;;;6.08;78.74;99445.06;5041324;28;20044;-66
2024/03/26 04:58:45;;;;;;;2.22;0.73;;;;;;;6.04;78.92;99446.16;5029802;28;20033;-65
2024/03/26 05:01:11;;;;;;;1.17;1.08;;;;;;;6.08;79.19;99446.97;5041636;28;20760;-67
2024/03/26 05:03:36;;;;;;;1.77;0.90;;;;;;;6.13;78.38;99444.03;5026629;28;20168;-67
2024/03/26 05:06:02;;;;;;;2.25;1.10;;;;;;;6.10;78.63;99440.16;5030567;28;20086;-66
2024/03/26 05:08:28;;;;;;;1.65;0.93;;;;;;;6.07;78.92;99445.44;5044454;28;20037;-65
2024/03/26 05:10:53;;;;;;;1.25;0.95;;;;;;;6.10;78.30;99434.03;5065714;28;20545;-67
2024/03/26 05:13:19;;;;;;;1.98;1.25;;;;;;;6.02;79.26;99433.13;5025248;28;20144;-66
2024/03/26 05:15:44;;;;;;;2.00;1.05;;;;;;;6.03;78.77;99420.56;5012456;28;20029;-67
2024/03/26 05:18:10;;;;;;;2.20;1.17;;;;;;;6.06;79.70;99419.84;5042379;28;20030;-66
2024/03/26 05:20:35;;;;;;;3.47;1.20;;;;;;;6.06;79.34;99417.94;5043800;28;20487;-66
2024/03/26 05:23:01;;;;;;;1.65;1.30;;;;;;;6.01;79.32;99406.78;5026290;28;20040;-66
2024/03/26 05:25:26;;;;;;;5.38;1.40;;;;;;;6.02;79.23;99419.03;5026982;28;20034;-66
2024/03/26 05:27:52;;;;;;;1.83;1.40;;;;;;;5.98;78.67;99410.91;5027646;28;20136;-65
2024/03/26 05:30:17;;;;;;;3.50;1.30;;;;;;;6.05;78.87;99405.72;5029891;28;20491;-67
2024/03/26 05:32:43;;;;;;;2.67;0.88;;;;;;;6.09;79.12;99409.22;5031656;28;20096;-65
2024/03/26 05:35:08;;;;;;;2.15;0.90;;;;;;;6.04;78.23;99401.50;5013834;28;20467;-69
2024/03/26 05:37:36;;;;;;;0.95;0.90;;;;;;;6.12;78.82;99399.72;5028424;28;20056;-67
2024/03/26 05:40:02;;;;;;;3.88;1.15;;;;;;;6.02;79.06;99403.00;5028605;28;20116;-67
2024/03/26 05:42:28;;;;;;;1.40;0.98;;;;;;;6.13;78.99;99398.59;5028701;28;20029;-67
2024/03/26 05:44:53;;;;;;;6.28;0.80;;;;;;;6.16;78.25;99395.97;5042848;28;20029;-67
2024/03/26 05:47:19;;;;;;;1.58;1.02;;;;;;;6.16;78.42;99385.28;5012277;28;20035;-66
2024/03/26 05:49:45;;;;;;;1.25;0.98;;;;;;;6.18;78.87;99387.59;5032376;28;20079;-66
2024/03/26 05:52:10;;;;;;;0.95;0.90;;;;;;;6.16;78.69;99395.19;5031675;28;20040;-66
2024/03/26 05:54:35;;;;;;;6.60;1.25;;;;;;;6.21;78.76;99376.22;5033379;28;20639;-67
2024/03/26 05:57:01;;;;;;;0.93;0.80;;;;;;;6.19;78.83;99387.25;5025739;28;20029;-66
2024/03/26 05:59:27;;;;;;;1.50;1.38;;;;;;;6.24;78.66;99380.84;5033292;28;20192;-67
2024/03/26 06:01:53;;;;;;;1.85;1.13;;;;;;;6.36;78.68;99372.63;5025390;28;20075;-67
2024/03/26 06:04:19;;;;;;;2.25;0.85;;;;;;;6.25;77.65;99366.34;5032737;28;20041;-67
2024/03/26 06:06:44;;;;;;;1.55;1.27;;;;;;;6.48;78.01;99364.44;5044582;28;20091;-66
2024/03/26 06:09:10;;;;;;;1.90;0.88;;;;;;;6.59;77.28;99362.69;5045522;28;20110;-68
2024/03/26 06:11:35;;;;;;;2.60;1.10;;;;;;;6.51;77.04;99358.34;5030830;28;20030;-66
2024/03/26 06:14:02;;;;;;;3.00;1.70;;;;;;;6.59;76.36;99364.56;5030646;28;20033;-66
2024/03/26 06:16:27;;;;;;;2.80;1.20;;;;;;;6.75;76.61;99365.97;5033588;28;20049;-66
2024/03/26 06:18:53;;;;;;;2.88;1.30;;;;;;;6.73;76.35;99354.09;5028043;28;20474;-65
2024/03/26 06:21:18;;;;;;;2.95;1.30;;;;;;;6.88;76.23;99359.28;5045119;28;20025;-67
2024/03/26 06:23:44;;;;;;;2.17;1.45;;;;;;;6.91;75.80;99355.88;5045908;28;20619;-65
2024/03/26 06:26:09;;;;;;;6.28;1.48;;;;;;;6.98;75.75;99358.66;5031409;28;20411;-67
2024/03/26 06:28:35;;;;;;;1.83;1.30;;;;;;;7.07;75.92;99348.44;5027178;28;20108;-66
2024/03/26 06:31:00;;;;;;;1.90;1.02;;;;;;;7.19;74.64;99339.41;5029331;28;20036;-66
2024/03/26 06:33:26;;;;;;;1.25;0.90;;;;;;;7.28;74.43;99331.88;5031705;28;20025;-67
2024/03/26 06:35:51;;;;;;;1.98;1.15;;;;;;;7.13;74.09;99332.84;5030594;28;20025;-66
2024/03/26 06:38:17;;;;;;;2.03;1.65;;;;;;;7.23;73.96;99330.31;5027804;28;20048;-66
2024/03/26 06:40:42;;;;;;;1.10;0.88;;;;;;;7.34;73.68;99324.31;5029072;28;20029;-66
2024/03/26 06:43:08;;;;;;;1.30;0.93;;;;;;;7.39;73.34;99315.94;5032265;28;20025;-67
2024/03/26 06:45:33;;;;;;;1.48;1.30;;;;;;;7.43;73.81;99320.19;5031487;28;20025;-67
2024/03/26 06:47:59;;;;;;;0.88;0.88;;;;;;;7.54;73.90;99321.06;5030970;28;20031;-65
2024/03/26 06:50:25;;;;;;;1.73;1.25;;;;;;;7.47;74.67;99320.22;5062894;28;20040;-66
2024/03/26 06:52:51;;;;;;;2.20;1.45;;;;;;;7.65;73.76;99324.63;5043289;28;20120;-67
2024/03/26 06:55:18;;;;;;;5.07;1.30;;;;;;;7.85;73.31;99320.63;5029999;28;20112;-66
2024/03/26 06:57:44;;;;;;;0.95;0.88;;;;;;;8.06;72.86;99317.34;5047397;28;20021;-66
2024/03/26 07:00:14;;;;;;;5.43;1.60;;;;;;;8.29;72.42;99322.53;5050815;28;20052;-65
2024/03/26 07:02:40;;;;;;;2.78;1.10;;;;;;;8.40;71.38;99323.41;5016987;28;20402;-65
2024/03/26 07:05:06;;;;;;;1.42;1.33;;;;;;;8.32;71.89;99316.44;5032870;28;20032;-67
2024/03/26 07:07:33;;;;;;;1.10;0.85;;;;;;;8.55;71.08;99314.28;5029982;28;20029;-67
2024/03/26 07:09:59;;;;;;;1.77;1.35;;;;;;;8.73;70.68;99312.50;5062995;28;20034;-66
2024/03/26 07:12:25;;;;;;;3.88;1.35;;;;;;;8.80;70.59;99309.84;5058678;28;20033;-65
2024/03/26 07:14:51;;;;;;;2.95;1.13;;;;;;;8.94;70.75;99307.97;5045982;28;20049;-66
2024/03/26 07:17:16;;;;;;;2.33;1.10;;;;;;;9.01;69.28;99301.88;5024033;28;20060;-66
2024/03/26 07:19:42;;;;;;;4.80;1.10;;;;;;;9.14;68.35;99305.78;5050754;28;20040;-66
2024/03/26 07:22:08;;;;;;;1.27;1.15;;;;;;;9.21;68.78;99308.50;5030882;28;20568;-67
2024/03/26 07:24:33;;;;;;;1.55;1.33;;;;;;;9.43;68.84;99302.03;5035030;28;20489;-67
2024/03/26 07:26:59;;;;;;;2.00;1.15;;;;;;;9.64;68.00;99301.31;5033150;28;20105;-66
2024/03/26 07:29:24;;;;;;;2.33;1.52;;;;;;;9.96;70.02;99315.56;5028921;28;20034;-66
2024/03/26 07:31:50;;;;;;;2.78;1.48;;;;;;;10.16;66.27;99299.84;5017430;28;20029;-67
2024/03/26 07:34:15;;;;;;;3.47;1.52;;;;;;;10.27;64.92;99287.16;5034755;28;20735;-66
2024/03/26 07:36:41;;;;;;;1.75;1.30;;;;;;;10.33;62.83;99286.38;5029920;28;20029;-66
2024/03/26 07:39:09;;;;;;;1.42;1.20;;;;;;;10.51;63.30;99284.41;5034441;28;20036;-67
2024/03/26 07:41:35;;;;;;;8.52;1.27;;;;;;;10.81;63.46;99279.38;5069030;28;20040;-67
2024/03/26 07:44:04;;;;;;;4.43;1.40;;;;;;;10.95;60.75;99273.16;5036126;28;20045;-66
2024/03/26 07:46:29;;;;;;;2.92;1.05;;;;;;;11.12;60.26;99266.91;5052872;28;20140;-68
2024/03/26 07:48:55;;;;;;;4.07;1.33;;;;;;;11.17;58.92;99265.75;5038742;28;20609;-66
2024/03/26 07:51:20;;;;;;;3.25;1.52;;;;;;;11.23;59.18;99258.78;5067914;28;20066;-67
2024/03/26 07:53:48;;;;;;;6.10;1.83;;;;;;;11.26;58.94;99263.38;5060552;28;20043;-66
2024/03/26 07:56:13;;;;;;;6.18;0.82;;;;;;;11.26;58.30;99264.16;5047881;28;20437;-66
2024/03/26 07:58:39;;;;;;;0.73;0.68;;;;;;;11.29;nan;99265.28;5047764;28;20125;-67
2024/03/26 08:01:04;;;;;;;0.85;0.65;;;;;;;11.35;58.11;99255.63;5034404;28;20052;-66
2024/03/26 08:03:30;;;;;;;4.07;1.42;;;;;;;11.21;58.13;99256.47;5030618;28;20090;-67
2024/03/26 08:05:55;;;;;;;1.60;1.50;;;;;;;11.27;58.21;99262.22;5031305;28;20053;-66
2024/03/26 08:08:20;;;;;;;2.10;0.88;;;;;;;11.39;58.14;99261.78;5033821;28;20037;-67
2024/03/26 08:10:46;;;;;;;2.25;1.13;;;;;;;11.39;59.91;99246.38;5036548;28;20036;-67
2024/03/26 08:13:12;;;;;;;2.58;1.30;;;;;;;11.67;59.05;99248.16;5015874;28;20120;-66
2024/03/26 08:15:37;;;;;;;2.97;1.63;;;;;;;11.83;57.86;99243.00;5065587;28;20029;-68
2024/03/26 08:18:03;;;;;;;1.50;1.30;;;;;;;11.97;58.29;99244.81;5049049;28;20980;-66
2024/03/26 08:20:30;;;;;;;2.83;0.95;;;;;;;12.17;58.35;99251.19;5046672;28;20041;-66
2024/03/26 08:22:57;;;;;;;3.03;1.50;;;;;;;12.31;56.60;99245.69;5045551;28;20036;-67
2024/03/26 08:25:23;;;;;;;3.72;1.40;;;;;;;12.48;56.30;99247.44;5037133;28;20021;-67
2024/03/26 08:27:49;;;;;;;2.25;1.30;;;;;;;12.61;54.63;99243.03;5031513;28;20036;-67
2024/03/26 08:30:14;;;;;;;1.33;0.98;;;;;;;12.72;55.30;99243.69;5034838;28;20037;-68
2024/03/26 08:32:40;;;;;;;2.85;1.98;;;;;;;12.85;54.63;99241.22;5030061;28;20191;-68
2024/03/26 08:35:08;;;;;;;5.50;1.25;;;;;;;12.99;54.18;99236.41;5031858;28;20037;-66
2024/03/26 08:37:35;;;;;;;5.05;1.38;;;;;;;13.15;53.92;99241.25;5032904;28;20064;-67
2024/03/26 08:40:02;;;;;;;7.53;1.60;;;;;;;13.19;54.12;99236.56;5031849;28;20029;-67
2024/03/26 08:42:27;;;;;;;2.47;1.23;;;;;;;13.26;52.86;99244.56;5032334;28;20033;-66
2024/03/26 08:44:53;;;;;;;1.65;1.20;;;;;;;13.18;52.35;99229.66;5048024;28;20029;-66
2024/03/26 08:47:18;;;;;;;1.35;1.15;;;;;;;13.35;51.98;99242.91;5016196;28;20487;-67
2024/03/26 08:49:44;;;;;;;1.50;1.17;;;;;;;13.36;53.51;99238.25;5029856;28;20048;-67
2024/03/26 08:52:09;;;;;;;1.75;1.15;;;;;;;13.55;53.20;99240.28;5028581;28;20414;-67
2024/03/26 08:54:35;;;;;;;2.08;1.42;;;;;;;13.65;50.48;99242.06;5046049;28;20037;-68
2024/03/26 08:57:00;;;;;;;1.17;0.80;;;;;;;13.73;51.17;99240.81;5050848;28;20025;-66
2024/03/26 08:59:26;;;;;;;1.33;1.00;;;;;;;13.87;52.14;99239.81;5034911;28;20060;-67
2024/03/26 09:01:51;;;;;;;1.48;1.23;;;;;;;14.04;50.96;99239.53;5016812;28;20032;-68
2024/03/26 09:04:17;;;;;;;1.13;0.93;;;;;;;13.87;49.78;99232.47;5031612;28;20110;-66
2024/03/26 09:06:42;;;;;;;4.75;1.58;;;;;;;13.98;50.72;99214.09;5030211;28;20052;-67
2024/03/26 09:09:08;;;;;;;2.30;1.10;;;;;;;14.10;48.97;99218.16;5030251;28;20037;-67
2024/03/26 09:11:33;;;;;;;2.53;1.10;;;;;;;14.28;49.49;99208.59;5032454;28;20044;-66
2024/03/26 09:13:59;;;;;;;2.92;1.00;;;;;;;14.58;49.18;99212.25;5051245;28;20052;-65
2024/03/26 09:16:24;;;;;;;3.55;0.93;;;;;;;14.79;48.03;99211.88;5062529;28;20047;-66
2024/03/26 09:18:51;;;;;;;2.17;1.00;;;;;;;14.88;47.23;99193.84;5026150;28;20037;-66
2024/03/26 09:21:16;;;;;;;0.77;0.77;;;;;;;14.90;48.11;99196.91;5029407;28;20033;-66
2024/03/26 09:23:42;;;;;;;3.95;1.33;;;;;;;15.08;48.32;99181.00;5029428;28;20078;-66
2024/03/26 09:26:07;;;;;;;2.38;1.40;;;;;;;15.42;48.02;99183.38;5028792;28;20030;-68
2024/03/26 09:28:34;;;;;;;5.32;0.85;;;;;;;15.43;46.68;99179.47;5044530;28;20036;-69
2024/03/26 09:30:59;;;;;;;1.13;0.88;;;;;;;15.63;47.29;99172.00;5030952;28;20021;-67
2024/03/26 09:33:25;;;;;;;1.30;0.90;;;;;;;15.64;46.88;99168.09;5033993;28;20513;-66
2024/03/26 09:35:52;;;;;;;4.95;1.52;;;;;;;15.74;46.24;99167.09;5027227;28;20414;-67
2024/03/26 09:38:17;;;;;;;2.67;1.23;;;;;;;16.04;46.52;99158.56;5036597;28;20560;-65
2024/03/26 09:40:54;;;;;;;3.63;1.17;;;;;;;16.17;45.02;99156.66;5032439;28;20056;-66
2024/03/26 09:43:21;;;;;;;5.22;1.20;;;;;;;15.81;44.13;99155.28;5054046;28;20037;-66
2024/03/26 09:45:48;;;;;;;4.88;1.02;;;;;;;15.64;44.89;99156.50;5034526;28;20029;-66
2024/03/26 09:48:15;;;;;;;1.45;0.98;;;;;;;15.72;45.71;99145.03;5043511;28;20490;-65
2024/03/26 09:50:42;;;;;;;1.52;0.90;;;;;;;15.86;44.85;99144.69;5058554;28;20029;-66
2024/03/26 09:53:10;;;;;;;2.42;0.82;;;;;;;15.92;43.98;99134.06;5029953;28;20433;-66
2024/03/26 09:55:37;;;;;;;1.23;0.98;;;;;;;15.92;43.91;99140.25;5034112;28;20037;-67
2024/03/26 09:58:02;;;;;;;1.55;1.15;;;;;;;15.95;44.03;99141.34;5049384;28;20467;-65
2024/03/26 10:00:31;;;;;;;2.50;1.10;;;;;;;16.02;43.44;99131.06;5032230;28;20036;-66
2024/03/26 10:02:59;;;;;;;3.20;1.15;;;;;;;15.76;44.56;99129.41;5042773;28;20033;-65
2024/03/26 10:05:25;;;;;;;1.00;0.68;;;;;;;15.97;44.67;99122.66;5032942;28;20395;-66
2024/03/26 10:07:51;;;;;;;1.83;0.93;;;;;;;16.15;45.05;99114.81;5045787;28;20056;-66
2024/03/26 10:10:18;;;;;;;1.58;0.82;;;;;;;16.02;44.87;99109.34;5031056;28;20033;-66
2024/03/26 10:12:43;;;;;;;4.95;0.90;;;;;;;16.16;45.75;99121.78;5065583;28;20433;-66
2024/03/26 10:15:09;;;;;;;5.03;1.23;;;;;;;15.94;43.99;99108.00;5029088;28;20040;-67
2024/03/26 10:17:35;;;;;;;1.45;1.23;;;;;;;15.73;45.04;99097.72;5035179;28;20576;-66
2024/03/26 10:20:02;;;;;;;1.95;1.30;;;;;;;15.62;45.90;99099.16;5016699;28;20033;-66
2024/03/26 10:22:28;;;;;;;2.28;0.80;;;;;;;15.72;44.38;99089.97;5040848;28;20040;-65
2024/03/26 10:24:54;;;;;;;2.45;1.17;;;;;;;15.63;45.88;99078.97;5045293;28;20099;-66
2024/03/26 10:27:19;;;;;;;2.53;1.13;;;;;;;15.39;46.82;99073.72;5030564;28;20036;-65
2024/03/26 10:29:45;;;;;;;6.57;1.73;;;;;;;15.43;46.47;99075.63;5045839;28;20033;-66
2024/03/26 10:32:15;;;;;;;1.08;0.90;;;;;;;15.31;45.62;99060.78;5022431;28;20041;-66
2024/03/26 10:34:49;;;;;;;1.02;0.93;;;;;;;15.09;44.43;99067.88;5044858;28;20029;-65
2024/03/26 10:37:14;;;;;;;2.00;1.08;;;;;;;15.23;45.71;99062.13;5031177;28;20036;-66
2024/03/26 10:39:46;;;;;;;3.47;1.20;;;;;;;15.29;46.36;99050.31;5027400;28;20025;-67
2024/03/26 10:42:12;;;;;;;;;;;;;;;15.32;45.52;99051.44;5043137;28;20040;-66
2024/03/26 10:44:37;;;;;;;1.40;0.88;;;;;;;15.37;46.21;99040.06;5039996;28;19967;-66
2024/03/26 10:47:04;;;;;;;2.67;1.38;;;;;;;15.17;44.75;99051.03;5028591;28;20488;-67
2024/03/26 10:49:33;;;;;;;3.03;1.08;;;;;;;14.97;45.59;99044.94;5025101;28;20099;-66
2024/03/26 10:52:00;;;;;;;1.10;1.00;;;;;;;15.09;45.55;99030.69;5037273;28;20080;-66
2024/03/26 10:54:25;;;;;;;3.80;1.25;;;;;;;15.19;45.65;99026.19;5043357;28;20792;-66
2024/03/26 10:56:53;;;;;;;1.65;1.17;;;;;;;15.25;45.32;99038.06;5027770;28;20025;-68
2024/03/26 10:59:20;;;;;;;2.25;1.10;;;;;;;15.28;46.64;99034.47;5042048;28;20558;-66
2024/03/26 11:01:47;;;;;;;2.83;1.20;;;;;;;15.44;45.46;99022.88;5022071;28;20034;-67
2024/03/26 11:04:13;;;;;;;1.45;0.90;;;;;;;15.33;45.72;99044.81;5033768;28;20038;-66
2024/03/26 11:06:39;;;;;;;1.33;0.88;;;;;;;15.27;45.92;99012.00;5040965;28;20091;-67
2024/03/26 11:09:07;;;;;;;3.05;1.30;;;;;;;15.21;45.28;99021.84;5030969;28;20021;-67
2024/03/26 11:11:34;;;;;;;1.63;1.08;;;;;;;14.98;45.81;99007.75;5019612;28;20034;-66
2024/03/26 11:14:02;;;;;;;1.00;0.88;;;;;;;15.10;46.67;99007.03;5054964;28;20037;-66
2024/03/26 11:16:39;;;;;;;2.40;1.15;;;;;;;15.15;46.65;98995.69;5042203;28;20059;-67
2024/03/26 11:19:17;;;;;;;1.63;1.30;;;;;;;15.24;46.38;98996.59;5045207;28;20045;-67
2024/03/26 11:21:42;;;;;;;2.05;1.35;;;;;;;15.26;46.84;98996.16;5040471;28;20033;-67
2024/03/26 11:24:19;;;;;;;2.15;0.95;;;;;;;15.10;46.50;98986.09;5032938;28;20397;-66
2024/03/26 11:26:45;;;;;;;8.15;1.38;;;;;;;14.92;47.16;98982.31;5064868;28;20049;-67
2024/03/26 11:29:12;;;;;;;2.38;1.20;;;;;;;14.75;47.30;98973.41;5012441;28;20051;-66
2024/03/26 11:31:39;;;;;;;1.27;1.02;;;;;;;14.66;47.77;98975.97;5008245;28;20037;-68
2024/03/26 11:34:06;;;;;;;1.45;0.77;;;;;;;14.67;47.47;98982.16;5010958;28;20033;-67